createdAt,value
2023-05-10T00:04:57.615Z,0.0
2023-05-10T00:09:53.947Z,0.0
2023-05-10T00:15:10.395Z,0.0
2023-05-10T00:20:40.956Z,0.0
2023-05-10T00:25:13.377Z,0.0
2023-05-10T00:30:29.778Z,0.0
2023-05-10T00:35:36.170Z,0.0
2023-05-10T00:41:50.697Z,0.0
2023-05-10T00:45:48.948Z,0.0
2023-05-10T00:50:45.309Z,0.0
2023-05-10T00:56:25.742Z,0.0
2023-05-10T01:01:32.203Z,0.0
2023-05-10T01:06:14.659Z,0.0
2023-05-10T01:11:21.077Z,0.0
2023-05-10T01:16:27.540Z,0.0
2023-05-10T01:21:53.889Z,0.0
2023-05-10T01:26:39.215Z,0.0
2023-05-10T01:31:50.182Z,0.0
2023-05-10T01:36:56.566Z,0.0
2023-05-10T01:42:02.966Z,0.0
2023-05-10T01:47:09.321Z,0.0
2023-05-10T01:52:15.726Z,0.0
2023-05-10T01:57:22.090Z,0.0
2023-05-10T02:02:30.048Z,0.0
2023-05-10T02:07:36.459Z,0.0
2023-05-10T02:12:42.880Z,0.0
2023-05-10T02:17:50.309Z,0.0
2023-05-10T02:23:16.747Z,0.0
2023-05-10T02:28:03.060Z,0.0
2023-05-10T02:32:59.499Z,0.0
2023-05-10T02:38:05.805Z,0.0
2023-05-10T02:43:22.279Z,0.0
2023-05-10T02:48:18.603Z,0.0
2023-05-10T02:53:59.070Z,0.0
2023-05-10T02:58:31.476Z,0.0
2023-05-10T03:03:47.875Z,0.0
2023-05-10T03:08:54.244Z,0.0
2023-05-10T03:13:50.649Z,0.0
2023-05-10T03:19:07.142Z,0.0
2023-05-10T03:24:15.098Z,0.0
2023-05-10T03:29:21.546Z,0.0
2023-05-10T03:34:27.874Z,0.0
2023-05-10T03:39:58.282Z,0.0
2023-05-10T03:44:42.214Z,0.0
2023-05-10T03:49:48.563Z,0.0
2023-05-10T03:54:54.958Z,0.0
2023-05-10T04:00:45.436Z,0.0
2023-05-10T04:04:57.679Z,5.0
2023-05-10T04:10:14.286Z,5.0
2023-05-10T04:15:10.426Z,10.0
2023-05-10T04:20:26.986Z,15.0
2023-05-10T04:25:23.283Z,15.0
2023-05-10T04:30:29.656Z,20.0
2023-05-10T04:36:10.200Z,20.0
2023-05-10T04:40:52.502Z,30.0
2023-05-10T04:45:58.888Z,30.0
2023-05-10T04:51:05.263Z,25.0
2023-05-10T04:56:11.762Z,15.0
2023-05-10T05:01:18.145Z,10.0
2023-05-10T05:06:14.482Z,30.0
2023-05-10T05:11:30.912Z,35.0
2023-05-10T05:16:37.358Z,45.0
2023-05-10T05:21:43.716Z,50.0
2023-05-10T05:26:50.112Z,55.0
2023-05-10T05:31:56.472Z,45.0
2023-05-10T05:36:52.906Z,45.0
2023-05-10T05:41:59.402Z,35.0
2023-05-10T05:47:15.794Z,45.0
2023-05-10T05:52:12.149Z,55.0
2023-05-10T05:57:28.599Z,70.0
2023-05-10T06:02:24.971Z,80.0
2023-05-10T06:07:41.320Z,80.0
2023-05-10T06:12:47.768Z,75.0
2023-05-10T06:17:54.132Z,60.0
2023-05-10T06:23:00.564Z,60.0
2023-05-10T06:28:06.994Z,65.0
2023-05-10T06:33:34.511Z,110.0
2023-05-10T06:38:21.113Z,115.0
2023-05-10T06:43:26.464Z,115.0
2023-05-10T06:48:57.852Z,115.0
2023-05-10T06:53:40.179Z,130.0
2023-05-10T06:58:36.552Z,185.0
2023-05-10T07:03:52.922Z,210.0
2023-05-10T07:08:59.323Z,190.0
2023-05-10T07:14:05.720Z,180.0
2023-05-10T07:19:12.088Z,155.0
2023-05-10T07:24:19.033Z,155.0
2023-05-10T07:29:25.658Z,185.0
2023-05-10T07:34:32.015Z,210.0
2023-05-10T07:39:38.400Z,240.0
2023-05-10T07:44:52.373Z,180.0
2023-05-10T07:49:54.706Z,295.0
2023-05-10T07:55:01.081Z,285.0
2023-05-10T08:00:07.484Z,195.0
2023-05-10T08:05:03.827Z,150.0
2023-05-10T08:10:20.257Z,210.0
2023-05-10T08:15:46.861Z,70.0
2023-05-10T08:20:32.993Z,120.0
2023-05-10T08:25:39.385Z,150.0
2023-05-10T08:31:09.884Z,195.0
2023-05-10T08:35:52.137Z,110.0
2023-05-10T08:40:58.508Z,85.0
2023-05-10T08:46:04.887Z,150.0
2023-05-10T08:51:11.293Z,240.0
2023-05-10T08:56:17.644Z,220.0
2023-05-10T09:01:24.111Z,185.0
2023-05-10T09:06:30.417Z,135.0
2023-05-10T09:11:36.783Z,165.0
2023-05-10T09:16:43.294Z,170.0
2023-05-10T09:21:49.668Z,110.0
2023-05-10T09:26:56.190Z,105.0
2023-05-10T09:32:02.571Z,180.0
2023-05-10T09:37:12.972Z,225.0
2023-05-10T09:42:20.982Z,220.0
2023-05-10T09:47:12.230Z,190.0
2023-05-10T09:52:29.630Z,240.0
2023-05-10T09:57:35.975Z,285.0
2023-05-10T10:02:42.405Z,315.0
2023-05-10T10:07:48.820Z,350.0
2023-05-10T10:12:55.181Z,325.0
2023-05-10T10:18:01.643Z,345.0
2023-05-10T10:23:07.957Z,330.0
2023-05-10T10:28:14.335Z,430.0
2023-05-10T10:33:28.375Z,540.0
2023-05-10T10:38:28.912Z,550.0
2023-05-10T10:43:36.817Z,655.0
2023-05-10T10:48:43.192Z,805.0
2023-05-10T10:53:49.676Z,1280.0
2023-05-10T10:58:56.031Z,1155.0
2023-05-10T11:04:02.461Z,785.0
2023-05-10T11:09:08.820Z,1305.0
2023-05-10T11:14:19.199Z,470.0
2023-05-10T11:19:21.581Z,505.0
2023-05-10T11:24:27.972Z,710.0
2023-05-10T11:29:34.334Z,880.0
2023-05-10T11:34:42.283Z,1695.0
2023-05-10T11:39:48.704Z,1460.0
2023-05-10T11:44:55.193Z,775.0
2023-05-10T11:50:01.546Z,475.0
2023-05-10T11:55:07.965Z,1205.0
2023-05-10T12:00:18.616Z,755.0
2023-05-10T12:05:20.778Z,1665.0
2023-05-10T12:15:31.906Z,320.0
2023-05-10T12:20:39.422Z,330.0
2023-05-10T12:25:45.794Z,205.0
2023-05-10T12:30:53.770Z,140.0
2023-05-10T12:36:00.110Z,385.0
2023-05-10T12:41:06.502Z,470.0
2023-05-10T12:46:13.021Z,590.0
2023-05-10T12:51:19.343Z,535.0
2023-05-10T12:56:25.905Z,480.0
2023-05-10T13:01:32.345Z,370.0
2023-05-10T13:06:38.659Z,280.0
2023-05-10T13:11:45.589Z,290.0
2023-05-10T13:16:52.018Z,315.0
2023-05-10T13:21:58.334Z,570.0
2023-05-10T13:27:05.802Z,925.0
2023-05-10T13:32:13.785Z,790.0
2023-05-10T13:37:20.170Z,490.0
2023-05-10T13:42:26.532Z,290.0
2023-05-10T13:47:32.950Z,175.0
2023-05-10T13:52:40.854Z,205.0
2023-05-10T13:57:46.228Z,145.0
2023-05-10T14:02:55.350Z,110.0
2023-05-10T14:08:01.565Z,115.0
2023-05-10T14:13:09.517Z,130.0
2023-05-10T14:18:15.942Z,95.0
2023-05-10T14:23:22.257Z,85.0
2023-05-10T14:28:28.858Z,125.0
2023-05-10T14:33:36.316Z,130.0
2023-05-10T14:38:46.682Z,110.0
2023-05-10T14:44:23.124Z,105.0
2023-05-10T14:49:30.620Z,105.0
2023-05-10T14:54:36.923Z,125.0
2023-05-10T15:00:03.488Z,170.0
2023-05-10T15:04:49.845Z,235.0
2023-05-10T15:09:56.181Z,310.0
2023-05-10T15:15:06.215Z,350.0
2023-05-10T15:20:12.643Z,260.0
2023-05-10T15:25:08.955Z,175.0
2023-05-10T15:30:49.408Z,230.0
2023-05-10T15:35:32.941Z,245.0
2023-05-10T15:40:39.431Z,180.0
2023-05-10T15:45:45.800Z,165.0
2023-05-10T15:50:52.195Z,265.0
2023-05-10T15:55:58.561Z,295.0
2023-05-10T16:01:04.992Z,290.0
2023-05-10T16:06:11.369Z,230.0
2023-05-10T16:11:17.732Z,285.0
2023-05-10T16:16:24.150Z,210.0
2023-05-10T16:22:05.148Z,210.0
2023-05-10T16:26:27.389Z,225.0
2023-05-10T16:31:33.801Z,175.0
2023-05-10T16:36:50.357Z,165.0
2023-05-10T16:42:18.056Z,150.0
2023-05-10T16:46:54.335Z,185.0
2023-05-10T16:52:11.394Z,255.0
2023-05-10T16:57:37.779Z,270.0
2023-05-10T17:02:24.160Z,215.0
2023-05-10T17:07:32.564Z,200.0
2023-05-10T17:12:38.949Z,210.0
2023-05-10T17:18:09.633Z,205.0
2023-05-10T17:23:39.430Z,150.0
2023-05-10T17:29:14.942Z,125.0
2023-05-10T17:33:09.242Z,115.0
2023-05-10T17:38:16.302Z,115.0
2023-05-10T17:44:17.779Z,100.0
2023-05-10T17:49:05.238Z,100.0
2023-05-10T17:54:13.203Z,95.0
2023-05-10T17:59:09.541Z,80.0
2023-05-10T18:04:26.110Z,75.0
2023-05-10T18:09:56.592Z,70.0
2023-05-10T18:15:02.930Z,65.0
2023-05-10T18:19:45.376Z,55.0
2023-05-10T18:24:51.912Z,50.0
2023-05-10T18:29:58.332Z,40.0
2023-05-10T18:35:04.761Z,35.0
2023-05-10T18:40:11.203Z,25.0
2023-05-10T18:45:17.980Z,20.0
2023-05-10T18:50:24.039Z,15.0
2023-05-10T18:55:50.453Z,10.0
2023-05-10T19:00:36.922Z,5.0
2023-05-10T19:05:33.414Z,5.0
2023-05-10T19:10:49.828Z,0.0
2023-05-10T19:15:47.271Z,0.0
2023-05-10T19:21:49.476Z,0.0
2023-05-10T19:31:20.662Z,0.0
2023-05-10T19:36:28.081Z,0.0
2023-05-10T19:41:55.662Z,0.0
2023-05-10T19:46:42.055Z,0.0
2023-05-10T19:52:12.412Z,0.0
2023-05-10T19:56:44.725Z,0.0
2023-05-10T20:02:05.179Z,0.0
2023-05-10T20:07:46.623Z,0.0
2023-05-10T20:12:12.939Z,0.0
2023-05-10T20:17:20.538Z,0.0
2023-05-10T20:22:50.926Z,0.0
2023-05-10T20:27:33.309Z,0.0
2023-05-10T20:33:03.811Z,0.0
2023-05-10T20:37:46.123Z,0.0
2023-05-10T20:42:52.633Z,0.0
2023-05-10T20:47:59.060Z,0.0
2023-05-10T20:53:06.564Z,0.0
2023-05-10T20:58:13.116Z,0.0
2023-05-10T21:03:19.389Z,0.0
2023-05-10T21:08:25.827Z,0.0
2023-05-10T21:13:52.211Z,0.0
2023-05-10T21:18:38.666Z,0.0
2023-05-10T21:25:24.172Z,0.0
2023-05-10T21:28:42.699Z,0.0
2023-05-10T21:34:19.132Z,0.0
2023-05-10T21:39:05.475Z,0.0
2023-05-10T21:44:01.941Z,0.0
2023-05-10T21:49:08.388Z,0.0
2023-05-10T21:54:25.008Z,0.0
2023-05-10T21:59:31.428Z,0.0
2023-05-10T22:04:37.920Z,0.0
2023-05-10T22:09:44.313Z,0.0
2023-05-10T22:15:13.843Z,0.0
2023-05-10T22:20:00.177Z,0.0
2023-05-10T22:25:06.549Z,0.0
2023-05-10T22:30:03.064Z,0.0
2023-05-10T22:35:19.579Z,0.0
2023-05-10T22:40:26.053Z,0.0
2023-05-10T22:45:32.430Z,0.0
2023-05-10T22:50:28.805Z,0.0
2023-05-10T22:55:45.176Z,0.0
2023-05-10T23:00:51.553Z,0.0
2023-05-10T23:05:57.950Z,0.0
2023-05-10T23:11:04.458Z,0.0
2023-05-10T23:16:10.950Z,0.0
2023-05-10T23:21:17.252Z,0.0
2023-05-10T23:26:23.613Z,0.0
2023-05-10T23:31:30.021Z,0.0
2023-05-10T23:36:36.425Z,0.0
2023-05-10T23:42:02.827Z,0.0
2023-05-10T23:46:49.153Z,0.0
2023-05-10T23:51:57.297Z,0.0
2023-05-10T23:57:27.629Z,0.0
